sensor_id;sensor_type;location;lat;lon;timestamp;P1;durP1;ratioP1;P2;durP2;ratioP2
5678;SDS011;2862;52.560;13.566;2024-02-16T00:06:58;22.70;;;7.93;;
5678;SDS011;2862;52.560;13.566;2024-02-16T00:17:01;25.40;;;9.27;;
5678;SDS011;2862;52.560;13.566;2024-02-16T00:27:06;31.27;;;10.23;;
5678;SDS011;2862;52.560;13.566;2024-02-16T00:37:09;30.43;;;11.90;;
5678;SDS011;2862;52.560;13.566;2024-02-16T00:47:15;33.43;;;12.77;;
5678;SDS011;2862;52.560;13.566;2024-02-16T00:57:17;30.43;;;12.60;;
5678;SDS011;2862;52.560;13.566;2024-02-16T01:07:22;34.53;;;13.13;;
5678;SDS011;2862;52.560;13.566;2024-02-16T01:17:24;31.87;;;14.43;;
5678;SDS011;2862;52.560;13.566;2024-02-16T01:27:29;32.83;;;14.63;;
5678;SDS011;2862;52.560;13.566;2024-02-16T01:37:31;39.63;;;16.40;;
5678;SDS011;2862;52.560;13.566;2024-02-16T01:47:36;39.70;;;17.70;;
5678;SDS011;2862;52.560;13.566;2024-02-16T01:57:40;40.17;;;16.50;;
5678;SDS011;2862;52.560;13.566;2024-02-16T02:07:46;35.20;;;16.80;;
5678;SDS011;2862;52.560;13.566;2024-02-16T02:17:50;39.73;;;19.43;;
5678;SDS011;2862;52.560;13.566;2024-02-16T02:27:55;41.90;;;20.63;;
5678;SDS011;2862;52.560;13.566;2024-02-16T02:37:57;41.67;;;19.07;;
5678;SDS011;2862;52.560;13.566;2024-02-16T02:48:02;41.03;;;17.63;;
5678;SDS011;2862;52.560;13.566;2024-02-16T02:58:05;37.30;;;17.07;;
5678;SDS011;2862;52.560;13.566;2024-02-16T03:08:09;39.33;;;18.10;;
5678;SDS011;2862;52.560;13.566;2024-02-16T03:18:13;35.70;;;17.90;;
5678;SDS011;2862;52.560;13.566;2024-02-16T03:28:17;43.30;;;18.67;;
5678;SDS011;2862;52.560;13.566;2024-02-16T03:38:21;40.77;;;17.87;;
5678;SDS011;2862;52.560;13.566;2024-02-16T03:48:25;39.90;;;18.60;;
5678;SDS011;2862;52.560;13.566;2024-02-16T03:58:29;39.57;;;17.50;;
5678;SDS011;2862;52.560;13.566;2024-02-16T04:08:33;36.07;;;16.83;;
5678;SDS011;2862;52.560;13.566;2024-02-16T04:18:36;43.90;;;16.90;;
5678;SDS011;2862;52.560;13.566;2024-02-16T04:28:40;44.10;;;18.47;;
5678;SDS011;2862;52.560;13.566;2024-02-16T04:38:43;40.80;;;17.30;;
5678;SDS011;2862;52.560;13.566;2024-02-16T04:48:47;42.40;;;19.47;;
5678;SDS011;2862;52.560;13.566;2024-02-16T04:58:50;38.83;;;17.60;;
5678;SDS011;2862;52.560;13.566;2024-02-16T05:08:55;42.83;;;16.47;;
5678;SDS011;2862;52.560;13.566;2024-02-16T05:18:59;33.80;;;14.70;;
5678;SDS011;2862;52.560;13.566;2024-02-16T05:29:03;35.47;;;15.40;;
5678;SDS011;2862;52.560;13.566;2024-02-16T05:39:06;32.60;;;14.17;;
5678;SDS011;2862;52.560;13.566;2024-02-16T05:49:24;39.13;;;15.67;;
5678;SDS011;2862;52.560;13.566;2024-02-16T05:59:27;36.53;;;16.00;;
5678;SDS011;2862;52.560;13.566;2024-02-16T06:09:31;31.63;;;13.53;;
5678;SDS011;2862;52.560;13.566;2024-02-16T06:19:36;43.10;;;16.73;;
5678;SDS011;2862;52.560;13.566;2024-02-16T06:29:41;42.00;;;16.10;;
5678;SDS011;2862;52.560;13.566;2024-02-16T06:39:44;32.87;;;13.90;;
5678;SDS011;2862;52.560;13.566;2024-02-16T06:49:48;31.47;;;13.77;;
5678;SDS011;2862;52.560;13.566;2024-02-16T06:59:51;32.00;;;12.13;;
5678;SDS011;2862;52.560;13.566;2024-02-16T07:09:56;32.27;;;11.87;;
5678;SDS011;2862;52.560;13.566;2024-02-16T07:19:59;28.10;;;11.83;;
5678;SDS011;2862;52.560;13.566;2024-02-16T07:30:06;38.03;;;12.90;;
5678;SDS011;2862;52.560;13.566;2024-02-16T07:40:12;30.40;;;11.97;;
5678;SDS011;2862;52.560;13.566;2024-02-16T07:50:19;27.27;;;10.30;;
5678;SDS011;2862;52.560;13.566;2024-02-16T08:00:22;28.13;;;9.37;;
5678;SDS011;2862;52.560;13.566;2024-02-16T08:10:26;32.93;;;13.80;;
5678;SDS011;2862;52.560;13.566;2024-02-16T08:20:29;25.80;;;9.87;;
5678;SDS011;2862;52.560;13.566;2024-02-16T08:30:34;30.10;;;10.10;;
5678;SDS011;2862;52.560;13.566;2024-02-16T08:40:37;24.80;;;9.17;;
5678;SDS011;2862;52.560;13.566;2024-02-16T08:50:42;25.77;;;9.40;;
5678;SDS011;2862;52.560;13.566;2024-02-16T09:00:45;34.80;;;8.80;;
5678;SDS011;2862;52.560;13.566;2024-02-16T09:10:51;33.70;;;12.97;;
5678;SDS011;2862;52.560;13.566;2024-02-16T09:20:54;30.50;;;11.20;;
5678;SDS011;2862;52.560;13.566;2024-02-16T09:30:58;29.37;;;12.40;;
5678;SDS011;2862;52.560;13.566;2024-02-16T09:41:01;26.47;;;8.90;;
5678;SDS011;2862;52.560;13.566;2024-02-16T09:51:06;24.33;;;8.37;;
5678;SDS011;2862;52.560;13.566;2024-02-16T10:01:16;23.90;;;8.33;;
5678;SDS011;2862;52.560;13.566;2024-02-16T10:11:25;20.93;;;7.13;;
5678;SDS011;2862;52.560;13.566;2024-02-16T10:21:30;25.53;;;8.30;;
5678;SDS011;2862;52.560;13.566;2024-02-16T10:31:34;25.90;;;7.67;;
5678;SDS011;2862;52.560;13.566;2024-02-16T10:41:38;24.90;;;7.00;;
5678;SDS011;2862;52.560;13.566;2024-02-16T10:51:45;22.27;;;6.37;;
5678;SDS011;2862;52.560;13.566;2024-02-16T11:01:58;22.37;;;6.67;;
5678;SDS011;2862;52.560;13.566;2024-02-16T11:12:05;24.47;;;6.83;;
5678;SDS011;2862;52.560;13.566;2024-02-16T11:22:11;24.30;;;6.60;;
5678;SDS011;2862;52.560;13.566;2024-02-16T11:32:20;20.93;;;5.63;;
5678;SDS011;2862;52.560;13.566;2024-02-16T11:42:23;21.17;;;5.33;;
5678;SDS011;2862;52.560;13.566;2024-02-16T11:52:27;21.10;;;6.13;;
5678;SDS011;2862;52.560;13.566;2024-02-16T12:02:30;21.93;;;6.17;;
5678;SDS011;2862;52.560;13.566;2024-02-16T12:12:35;22.43;;;5.60;;
5678;SDS011;2862;52.560;13.566;2024-02-16T12:22:38;27.83;;;4.90;;
5678;SDS011;2862;52.560;13.566;2024-02-16T12:32:42;17.83;;;2.90;;
5678;SDS011;2862;52.560;13.566;2024-02-16T12:42:46;17.10;;;2.60;;
5678;SDS011;2862;52.560;13.566;2024-02-16T12:52:50;16.50;;;2.13;;
5678;SDS011;2862;52.560;13.566;2024-02-16T13:02:55;18.80;;;2.40;;
5678;SDS011;2862;52.560;13.566;2024-02-16T13:12:59;17.80;;;2.00;;
5678;SDS011;2862;52.560;13.566;2024-02-16T13:23:02;17.40;;;2.33;;
5678;SDS011;2862;52.560;13.566;2024-02-16T13:33:07;18.83;;;1.73;;
5678;SDS011;2862;52.560;13.566;2024-02-16T13:43:11;18.17;;;2.00;;
5678;SDS011;2862;52.560;13.566;2024-02-16T13:53:15;16.10;;;1.70;;
5678;SDS011;2862;52.560;13.566;2024-02-16T14:03:19;16.50;;;1.80;;
5678;SDS011;2862;52.560;13.566;2024-02-16T14:13:23;17.17;;;2.03;;
5678;SDS011;2862;52.560;13.566;2024-02-16T14:23:27;18.30;;;2.43;;
5678;SDS011;2862;52.560;13.566;2024-02-16T14:33:31;20.20;;;2.43;;
5678;SDS011;2862;52.560;13.566;2024-02-16T14:43:34;17.10;;;1.83;;
5678;SDS011;2862;52.560;13.566;2024-02-16T14:53:42;23.40;;;5.17;;
5678;SDS011;2862;52.560;13.566;2024-02-16T15:03:45;19.10;;;2.37;;
5678;SDS011;2862;52.560;13.566;2024-02-16T15:13:51;21.27;;;3.10;;
5678;SDS011;2862;52.560;13.566;2024-02-16T15:23:54;18.23;;;2.67;;
5678;SDS011;2862;52.560;13.566;2024-02-16T15:33:58;16.33;;;2.27;;
5678;SDS011;2862;52.560;13.566;2024-02-16T15:44:01;16.00;;;2.20;;
5678;SDS011;2862;52.560;13.566;2024-02-16T15:54:06;16.47;;;2.00;;
5678;SDS011;2862;52.560;13.566;2024-02-16T16:04:09;19.70;;;2.40;;
5678;SDS011;2862;52.560;13.566;2024-02-16T16:14:13;18.37;;;1.77;;
5678;SDS011;2862;52.560;13.566;2024-02-16T16:24:16;17.47;;;2.37;;
5678;SDS011;2862;52.560;13.566;2024-02-16T16:34:20;17.37;;;2.27;;
5678;SDS011;2862;52.560;13.566;2024-02-16T16:44:23;19.50;;;2.47;;
5678;SDS011;2862;52.560;13.566;2024-02-16T16:54:28;16.70;;;2.03;;
5678;SDS011;2862;52.560;13.566;2024-02-16T17:04:31;23.80;;;3.20;;
5678;SDS011;2862;52.560;13.566;2024-02-16T17:14:35;22.60;;;3.50;;
5678;SDS011;2862;52.560;13.566;2024-02-16T17:24:38;26.27;;;4.27;;
5678;SDS011;2862;52.560;13.566;2024-02-16T17:34:42;19.90;;;2.60;;
5678;SDS011;2862;52.560;13.566;2024-02-16T17:44:45;17.80;;;2.10;;
5678;SDS011;2862;52.560;13.566;2024-02-16T17:54:51;20.80;;;3.47;;
5678;SDS011;2862;52.560;13.566;2024-02-16T18:04:54;21.03;;;4.30;;
5678;SDS011;2862;52.560;13.566;2024-02-16T18:14:58;16.33;;;1.90;;
5678;SDS011;2862;52.560;13.566;2024-02-16T18:25:00;22.67;;;2.27;;
5678;SDS011;2862;52.560;13.566;2024-02-16T18:35:08;21.20;;;2.83;;
5678;SDS011;2862;52.560;13.566;2024-02-16T18:45:11;19.87;;;3.10;;
5678;SDS011;2862;52.560;13.566;2024-02-16T18:55:15;19.27;;;2.80;;
5678;SDS011;2862;52.560;13.566;2024-02-16T19:05:18;23.10;;;2.10;;
5678;SDS011;2862;52.560;13.566;2024-02-16T19:15:22;21.30;;;2.87;;
5678;SDS011;2862;52.560;13.566;2024-02-16T19:25:26;23.27;;;2.53;;
5678;SDS011;2862;52.560;13.566;2024-02-16T19:35:31;19.50;;;2.37;;
5678;SDS011;2862;52.560;13.566;2024-02-16T19:45:34;22.27;;;2.80;;
5678;SDS011;2862;52.560;13.566;2024-02-16T19:55:43;19.60;;;3.87;;
5678;SDS011;2862;52.560;13.566;2024-02-16T20:05:48;21.10;;;3.40;;
5678;SDS011;2862;52.560;13.566;2024-02-16T20:15:56;20.10;;;4.67;;
5678;SDS011;2862;52.560;13.566;2024-02-16T20:26:02;20.40;;;5.03;;
5678;SDS011;2862;52.560;13.566;2024-02-16T20:36:07;24.07;;;6.90;;
5678;SDS011;2862;52.560;13.566;2024-02-16T20:46:15;25.23;;;8.50;;
5678;SDS011;2862;52.560;13.566;2024-02-16T20:56:22;21.97;;;7.63;;
5678;SDS011;2862;52.560;13.566;2024-02-16T21:06:24;32.50;;;8.90;;
5678;SDS011;2862;52.560;13.566;2024-02-16T21:16:29;27.23;;;10.90;;
5678;SDS011;2862;52.560;13.566;2024-02-16T21:26:31;29.13;;;10.00;;
5678;SDS011;2862;52.560;13.566;2024-02-16T21:36:36;28.97;;;11.93;;
5678;SDS011;2862;52.560;13.566;2024-02-16T21:46:39;29.67;;;11.60;;
5678;SDS011;2862;52.560;13.566;2024-02-16T21:56:44;33.33;;;13.87;;
5678;SDS011;2862;52.560;13.566;2024-02-16T22:06:47;32.87;;;14.57;;
5678;SDS011;2862;52.560;13.566;2024-02-16T22:16:53;34.37;;;14.13;;
5678;SDS011;2862;52.560;13.566;2024-02-16T22:26:56;36.60;;;15.50;;
5678;SDS011;2862;52.560;13.566;2024-02-16T22:37:00;36.77;;;16.93;;
5678;SDS011;2862;52.560;13.566;2024-02-16T22:47:04;38.90;;;16.53;;
5678;SDS011;2862;52.560;13.566;2024-02-16T22:57:08;46.63;;;16.90;;
5678;SDS011;2862;52.560;13.566;2024-02-16T23:07:11;41.13;;;18.80;;
5678;SDS011;2862;52.560;13.566;2024-02-16T23:17:16;36.80;;;17.37;;
5678;SDS011;2862;52.560;13.566;2024-02-16T23:27:19;31.70;;;13.43;;
5678;SDS011;2862;52.560;13.566;2024-02-16T23:37:23;26.13;;;8.00;;
5678;SDS011;2862;52.560;13.566;2024-02-16T23:47:26;24.50;;;6.93;;
5678;SDS011;2862;52.560;13.566;2024-02-16T23:57:31;22.20;;;7.57;;
